createdAt,value
2017-10-12T00:00:04.333Z,3.60
2017-10-12T00:01:04.300Z,3.20
2017-10-12T00:02:04.266Z,3.10
2017-10-12T00:03:04.233Z,3.40
2017-10-12T00:04:04.201Z,3.00
2017-10-12T00:05:04.168Z,3.50
2017-10-12T00:06:04.134Z,3.00
2017-10-12T00:07:04.102Z,3.30
2017-10-12T00:08:04.069Z,3.00
2017-10-12T00:09:04.037Z,3.10
2017-10-12T00:10:04.004Z,2.90
2017-10-12T00:11:03.973Z,3.30
2017-10-12T00:12:03.939Z,3.10
2017-10-12T00:13:03.906Z,2.70
2017-10-12T00:14:03.873Z,2.90
2017-10-12T00:15:03.841Z,2.90
2017-10-12T00:16:03.809Z,2.70
2017-10-12T00:17:03.776Z,3.30
2017-10-12T00:18:03.743Z,3.10
2017-10-12T00:19:03.711Z,2.80
2017-10-12T00:20:03.682Z,2.90
2017-10-12T00:21:03.647Z,2.90
2017-10-12T00:22:03.618Z,3.30
2017-10-12T00:23:03.896Z,2.70
2017-10-12T00:24:03.548Z,3.00
2017-10-12T00:25:03.514Z,3.10
2017-10-12T00:26:03.483Z,3.10
2017-10-12T00:27:03.450Z,3.30
2017-10-12T00:28:03.419Z,3.20
2017-10-12T00:29:03.388Z,3.50
2017-10-12T00:30:03.352Z,3.20
2017-10-12T00:31:03.319Z,3.00
2017-10-12T00:32:03.287Z,2.80
2017-10-12T00:33:03.255Z,3.50
2017-10-12T00:34:03.222Z,3.10
2017-10-12T00:35:03.189Z,2.70
2017-10-12T00:36:03.156Z,2.90
2017-10-12T00:37:03.124Z,3.20
2017-10-12T00:38:03.091Z,3.10
2017-10-12T00:39:03.059Z,3.10
2017-10-12T00:40:03.031Z,3.40
2017-10-12T00:41:02.994Z,3.20
2017-10-12T00:42:02.966Z,3.30
2017-10-12T00:43:02.928Z,3.70
2017-10-12T00:44:02.898Z,3.30
2017-10-12T00:45:02.867Z,3.20
2017-10-12T00:46:02.832Z,3.40
2017-10-12T00:47:02.803Z,3.10
2017-10-12T00:48:02.768Z,3.10
2017-10-12T00:49:02.736Z,3.20
2017-10-12T00:50:02.712Z,3.70
2017-10-12T00:51:02.670Z,3.00
2017-10-12T00:52:02.637Z,3.50
2017-10-12T00:53:02.614Z,3.50
2017-10-12T00:54:02.573Z,3.20
2017-10-12T00:55:02.876Z,3.40
2017-10-12T00:56:02.511Z,3.70
2017-10-12T00:57:02.475Z,3.50
2017-10-12T00:58:02.442Z,3.20
2017-10-12T00:59:02.410Z,3.60
2017-10-12T01:00:02.380Z,2.90
2017-10-12T01:01:02.347Z,2.90
2017-10-12T01:02:02.313Z,2.90
2017-10-12T01:03:02.282Z,2.80
2017-10-12T01:04:02.249Z,2.80
2017-10-12T01:05:02.216Z,3.20
2017-10-12T01:06:02.178Z,2.80
2017-10-12T01:07:02.165Z,3.30
2017-10-12T01:08:02.120Z,3.30
2017-10-12T01:09:02.086Z,3.30
2017-10-12T01:10:02.053Z,2.90
2017-10-12T01:11:02.022Z,3.40
2017-10-12T01:12:01.988Z,3.00
2017-10-12T01:13:01.956Z,3.10
2017-10-12T01:14:01.925Z,2.80
2017-10-12T01:15:01.893Z,3.20
2017-10-12T01:16:02.467Z,3.10
2017-10-12T01:17:01.827Z,3.70
2017-10-12T01:18:01.792Z,3.40
2017-10-12T01:19:01.762Z,3.40
2017-10-12T01:20:01.729Z,2.80
2017-10-12T01:21:01.698Z,3.10
2017-10-12T01:22:01.665Z,2.70
2017-10-12T01:23:01.633Z,3.10
2017-10-12T01:24:01.599Z,3.10
2017-10-12T01:25:01.567Z,2.90
2017-10-12T01:26:01.534Z,3.00
2017-10-12T01:27:01.503Z,3.00
2017-10-12T01:28:01.469Z,2.90
2017-10-12T01:29:01.447Z,3.10
2017-10-12T01:30:01.405Z,3.10
2017-10-12T01:31:01.373Z,3.50
2017-10-12T01:32:01.340Z,3.20
2017-10-12T01:33:01.308Z,3.10
2017-10-12T01:34:01.274Z,2.80
2017-10-12T01:35:02.072Z,2.90
2017-10-12T01:36:01.217Z,2.90
2017-10-12T01:37:01.176Z,2.60
2017-10-12T01:38:01.146Z,2.90
2017-10-12T01:39:01.111Z,3.70
2017-10-12T01:40:01.081Z,3.20
2017-10-12T01:41:01.049Z,3.10
2017-10-12T01:42:01.015Z,3.10
2017-10-12T01:43:00.985Z,3.00
2017-10-12T01:44:00.952Z,3.10
2017-10-12T01:45:00.919Z,3.30
2017-10-12T01:46:00.885Z,3.30
2017-10-12T01:47:00.853Z,3.40
2017-10-12T01:48:00.822Z,2.90
2017-10-12T01:49:00.788Z,3.70
2017-10-12T01:50:00.755Z,3.50
2017-10-12T01:51:00.723Z,3.20
2017-10-12T01:52:00.690Z,3.10
2017-10-12T01:53:00.662Z,3.30
2017-10-12T01:54:00.628Z,3.20
2017-10-12T01:55:00.593Z,3.50
2017-10-12T01:56:00.561Z,3.00
2017-10-12T01:57:00.527Z,3.10
2017-10-12T01:58:00.682Z,3.20
2017-10-12T01:59:00.469Z,3.00
2017-10-12T02:00:00.432Z,3.80
2017-10-12T02:01:00.400Z,3.20
2017-10-12T02:02:00.367Z,3.30
2017-10-12T02:03:00.333Z,3.20
2017-10-12T02:04:00.302Z,3.20
2017-10-12T02:05:00.270Z,3.50
2017-10-12T02:06:00.236Z,3.20
2017-10-12T02:07:00.204Z,3.20
2017-10-12T02:08:00.174Z,3.40
2017-10-12T02:09:00.944Z,3.00
2017-10-12T02:10:00.107Z,3.40
2017-10-12T02:11:00.074Z,3.20
2017-10-12T02:12:00.043Z,3.40
2017-10-12T02:13:00.011Z,3.60
2017-10-12T02:13:59.976Z,3.20
2017-10-12T02:14:59.943Z,3.30
2017-10-12T02:15:59.912Z,3.10
2017-10-12T02:16:59.880Z,3.30
2017-10-12T02:17:59.846Z,3.40
2017-10-12T02:18:59.813Z,3.70
2017-10-12T02:19:59.782Z,4.00
2017-10-12T02:20:59.749Z,4.00
2017-10-12T02:21:59.716Z,3.50
2017-10-12T02:22:59.684Z,3.20
2017-10-12T02:23:59.650Z,3.30
2017-10-12T02:24:59.619Z,3.70
2017-10-12T02:25:59.584Z,3.40
2017-10-12T02:26:59.552Z,3.60
2017-10-12T02:27:59.517Z,3.30
2017-10-12T02:28:59.485Z,3.20
2017-10-12T02:29:59.456Z,3.70
2017-10-12T02:30:59.418Z,3.30
2017-10-12T02:31:59.386Z,3.60
2017-10-12T02:32:59.355Z,3.10
2017-10-12T02:33:59.320Z,3.20
2017-10-12T02:34:59.290Z,3.50
2017-10-12T02:35:59.260Z,3.80
2017-10-12T02:36:59.222Z,3.20
2017-10-12T02:37:59.191Z,3.20
2017-10-12T02:38:59.158Z,3.20
2017-10-12T02:39:59.124Z,3.10
2017-10-12T02:40:59.093Z,3.50
2017-10-12T02:41:59.060Z,3.20
2017-10-12T02:42:59.033Z,3.50
2017-10-12T02:43:58.993Z,3.10
2017-10-12T02:44:58.962Z,3.30
2017-10-12T02:45:58.927Z,3.20
2017-10-12T02:46:58.896Z,3.30
2017-10-12T02:47:59.168Z,3.30
2017-10-12T02:48:58.830Z,3.00
2017-10-12T02:49:58.796Z,3.30
2017-10-12T02:50:58.763Z,3.30
2017-10-12T02:51:58.732Z,3.20
2017-10-12T02:52:58.699Z,3.20
2017-10-12T02:53:58.663Z,3.80
2017-10-12T02:54:58.632Z,3.20
2017-10-12T02:55:58.602Z,3.70
2017-10-12T02:56:58.569Z,3.40
2017-10-12T02:57:58.537Z,3.60
2017-10-12T02:58:58.502Z,3.40
2017-10-12T02:59:58.470Z,3.30
2017-10-12T03:00:58.434Z,3.70
2017-10-12T03:01:58.403Z,3.20
2017-10-12T03:02:58.371Z,3.30
2017-10-12T03:03:58.340Z,3.00
2017-10-12T03:04:58.781Z,3.30
2017-10-12T03:05:58.273Z,3.10
2017-10-12T03:06:58.238Z,2.90
2017-10-12T03:07:58.208Z,3.10
2017-10-12T03:08:58.176Z,3.40
2017-10-12T03:09:58.142Z,3.10
2017-10-12T03:10:58.109Z,3.40
2017-10-12T03:11:58.077Z,3.10
2017-10-12T03:12:58.101Z,3.00
2017-10-12T03:13:58.011Z,3.20
2017-10-12T03:14:57.979Z,3.50
2017-10-12T03:15:57.945Z,3.80
2017-10-12T03:16:57.915Z,3.60
2017-10-12T03:17:58.109Z,3.20
2017-10-12T03:18:57.847Z,3.30
2017-10-12T03:19:57.815Z,3.70
2017-10-12T03:20:57.783Z,3.90
2017-10-12T03:21:57.750Z,3.70
2017-10-12T03:22:57.716Z,3.30
2017-10-12T03:23:57.684Z,3.40
2017-10-12T03:24:57.652Z,3.30
2017-10-12T03:25:57.617Z,3.60
2017-10-12T03:26:57.584Z,3.40
2017-10-12T03:27:57.551Z,3.10
2017-10-12T03:28:57.520Z,4.00
2017-10-12T03:29:57.486Z,3.40
2017-10-12T03:30:57.456Z,3.20
2017-10-12T03:31:57.427Z,3.50
2017-10-12T03:32:57.389Z,3.60
2017-10-12T03:33:57.355Z,3.70
2017-10-12T03:34:57.322Z,3.90
2017-10-12T03:35:57.300Z,3.80
2017-10-12T03:36:57.258Z,3.40
2017-10-12T03:37:57.223Z,3.80
2017-10-12T03:38:57.192Z,4.10
2017-10-12T03:39:57.159Z,3.80
2017-10-12T03:40:57.127Z,3.70
2017-10-12T03:41:57.093Z,3.90
2017-10-12T03:42:57.063Z,4.00
2017-10-12T03:43:57.029Z,3.70
2017-10-12T03:44:56.997Z,3.60
2017-10-12T03:45:56.961Z,4.00
2017-10-12T03:46:56.929Z,4.10
2017-10-12T03:47:56.981Z,3.80
2017-10-12T03:48:56.989Z,4.20
2017-10-12T03:49:56.831Z,4.20
2017-10-12T03:50:56.800Z,4.10
2017-10-12T03:51:56.767Z,4.30
2017-10-12T03:52:56.732Z,4.50
2017-10-12T03:53:56.699Z,4.90
2017-10-12T03:54:56.668Z,4.60
2017-10-12T03:55:56.634Z,4.80
2017-10-12T03:56:56.602Z,4.50
2017-10-12T03:57:56.568Z,4.30
2017-10-12T03:58:56.535Z,4.70
2017-10-12T03:59:56.501Z,5.00
2017-10-12T04:00:56.470Z,4.20
2017-10-12T04:01:56.434Z,5.10
2017-10-12T04:02:56.401Z,4.70
2017-10-12T04:03:56.369Z,5.10
2017-10-12T04:04:56.338Z,4.80
2017-10-12T04:05:56.568Z,4.60
2017-10-12T04:06:56.271Z,5.20
2017-10-12T04:07:56.235Z,5.00
2017-10-12T04:08:56.205Z,4.60
2017-10-12T04:09:56.172Z,5.10
2017-10-12T04:10:56.138Z,4.70
2017-10-12T04:11:56.105Z,5.10
2017-10-12T04:12:56.073Z,5.00
2017-10-12T04:13:56.040Z,5.10
2017-10-12T04:14:56.007Z,4.90
2017-10-12T04:15:55.974Z,4.90
2017-10-12T04:16:55.940Z,4.60
2017-10-12T04:17:55.905Z,4.70
2017-10-12T04:18:55.875Z,4.60
2017-10-12T04:19:55.842Z,5.00
2017-10-12T04:20:55.809Z,5.00
2017-10-12T04:21:55.775Z,4.70
2017-10-12T04:22:56.152Z,4.40
2017-10-12T04:23:55.709Z,4.90
2017-10-12T04:24:55.677Z,4.70
2017-10-12T04:25:55.641Z,4.40
2017-10-12T04:26:55.617Z,4.70
2017-10-12T04:27:55.577Z,4.90
2017-10-12T04:28:55.544Z,5.10
2017-10-12T04:29:55.510Z,5.40
2017-10-12T04:30:55.479Z,4.80
2017-10-12T04:31:55.443Z,4.60
2017-10-12T04:32:55.411Z,4.70
2017-10-12T04:33:55.376Z,5.00
2017-10-12T04:34:55.344Z,4.80
2017-10-12T04:35:55.310Z,4.80
2017-10-12T04:36:55.277Z,5.40
2017-10-12T04:37:55.243Z,4.70
2017-10-12T04:38:55.210Z,4.80
2017-10-12T04:39:55.178Z,4.70
2017-10-12T04:40:55.143Z,4.40
2017-10-12T04:41:55.111Z,4.20
2017-10-12T04:42:55.078Z,4.90
2017-10-12T04:43:55.043Z,4.00
2017-10-12T04:44:55.009Z,4.40
2017-10-12T04:45:54.975Z,5.00
2017-10-12T04:46:54.943Z,5.00
2017-10-12T04:47:54.910Z,4.40
2017-10-12T04:48:54.878Z,4.70
2017-10-12T04:49:54.837Z,4.80
2017-10-12T04:50:55.652Z,5.10
2017-10-12T04:51:54.776Z,4.80
2017-10-12T04:52:54.768Z,4.60
2017-10-12T04:53:54.708Z,5.10
2017-10-12T04:54:55.042Z,5.30
2017-10-12T04:55:54.641Z,5.40
2017-10-12T04:56:54.609Z,5.00
2017-10-12T04:57:54.574Z,5.00
2017-10-12T04:58:54.543Z,4.80
2017-10-12T04:59:54.511Z,5.40
2017-10-12T05:00:54.471Z,4.50
2017-10-12T05:01:54.439Z,4.70
2017-10-12T05:02:54.407Z,4.30
2017-10-12T05:03:54.374Z,4.20
2017-10-12T05:04:54.346Z,4.40
2017-10-12T05:05:54.306Z,3.80
2017-10-12T05:06:54.272Z,4.10
2017-10-12T05:07:54.239Z,3.30
2017-10-12T05:08:54.206Z,3.90
2017-10-12T05:09:54.172Z,4.40
2017-10-12T05:10:54.138Z,3.90
2017-10-12T05:11:54.106Z,4.30
2017-10-12T05:12:54.072Z,3.40
2017-10-12T05:13:54.037Z,4.00
2017-10-12T05:14:54.008Z,3.40
2017-10-12T05:15:53.970Z,3.60
2017-10-12T05:16:53.937Z,3.50
2017-10-12T05:17:53.903Z,3.60
2017-10-12T05:18:53.869Z,3.80
2017-10-12T05:19:53.836Z,3.30
2017-10-12T05:20:53.804Z,3.60
2017-10-12T05:21:53.768Z,3.70
2017-10-12T05:22:53.736Z,3.90
2017-10-12T05:23:53.702Z,4.40
2017-10-12T05:24:53.669Z,3.20
2017-10-12T05:25:53.635Z,3.50
2017-10-12T05:26:53.602Z,3.60
2017-10-12T05:27:53.568Z,3.50
2017-10-12T05:28:53.534Z,4.00
2017-10-12T05:29:53.503Z,3.60
2017-10-12T05:30:53.468Z,3.90
2017-10-12T05:31:53.435Z,3.40
2017-10-12T05:32:53.399Z,3.70
2017-10-12T05:33:53.368Z,3.80
2017-10-12T05:34:53.335Z,3.40
2017-10-12T05:35:53.299Z,3.20
2017-10-12T05:36:53.269Z,3.20
2017-10-12T05:37:53.231Z,3.60
2017-10-12T05:38:53.200Z,3.60
2017-10-12T05:39:53.166Z,3.20
2017-10-12T05:40:53.133Z,4.00
2017-10-12T05:41:53.098Z,3.20
2017-10-12T05:42:53.063Z,3.50
2017-10-12T05:43:53.032Z,3.90
2017-10-12T05:44:52.999Z,2.90
2017-10-12T05:45:52.963Z,3.80
2017-10-12T05:46:52.932Z,3.70
2017-10-12T05:47:52.897Z,3.10
2017-10-12T05:48:52.865Z,3.70
2017-10-12T05:49:52.832Z,4.00
2017-10-12T05:50:52.795Z,3.90
2017-10-12T05:51:52.763Z,3.50
2017-10-12T05:52:52.729Z,3.60
2017-10-12T05:53:52.695Z,4.00
2017-10-12T05:54:52.661Z,3.50
2017-10-12T05:55:52.628Z,3.40
2017-10-12T05:56:53.290Z,3.60
2017-10-12T05:57:52.558Z,3.70
2017-10-12T05:58:52.528Z,4.00
2017-10-12T05:59:52.492Z,3.50
2017-10-12T06:00:52.460Z,3.60
2017-10-12T06:01:52.426Z,3.80
2017-10-12T06:02:52.392Z,3.90
2017-10-12T06:03:52.359Z,3.90
2017-10-12T06:04:52.327Z,4.10
2017-10-12T06:05:52.289Z,4.90
2017-10-12T06:06:52.258Z,4.40
2017-10-12T06:07:52.224Z,4.50
2017-10-12T06:08:52.192Z,3.80
2017-10-12T06:09:52.155Z,4.20
2017-10-12T06:10:52.131Z,4.50
2017-10-12T06:11:52.092Z,4.30
2017-10-12T06:12:52.058Z,4.70
2017-10-12T06:13:52.023Z,4.60
2017-10-12T06:14:51.992Z,4.60
2017-10-12T06:15:51.959Z,4.60
2017-10-12T06:16:51.926Z,5.10
2017-10-12T06:17:51.893Z,5.10
2017-10-12T06:18:51.858Z,5.10
2017-10-12T06:19:51.824Z,4.80
2017-10-12T06:20:51.793Z,4.30
2017-10-12T06:21:51.758Z,5.10
2017-10-12T06:22:51.724Z,4.40
2017-10-12T06:23:51.691Z,4.80
2017-10-12T06:24:51.889Z,5.00
2017-10-12T06:25:51.635Z,18.00
2017-10-12T06:26:51.593Z,28.00
2017-10-12T06:27:51.558Z,24.20
2017-10-12T06:28:51.532Z,20.30
2017-10-12T06:29:51.490Z,32.50
2017-10-12T06:30:51.457Z,27.90
2017-10-12T06:31:51.423Z,37.00
2017-10-12T06:32:51.392Z,26.70
2017-10-12T06:33:51.360Z,18.80
2017-10-12T06:34:51.324Z,22.40
2017-10-12T06:35:51.290Z,19.60
2017-10-12T06:36:51.259Z,22.20
2017-10-12T06:37:51.225Z,27.60
2017-10-12T06:38:51.195Z,25.70
2017-10-12T06:39:51.158Z,22.50
2017-10-12T06:40:51.124Z,19.50
2017-10-12T06:41:51.091Z,16.10
2017-10-12T06:42:51.061Z,16.30
2017-10-12T06:43:51.026Z,15.50
2017-10-12T06:44:50.994Z,18.10
2017-10-12T06:45:50.960Z,22.60
2017-10-12T06:46:50.926Z,15.40
2017-10-12T06:47:50.893Z,12.40
2017-10-12T06:48:50.860Z,13.10
2017-10-12T06:49:50.828Z,11.20
2017-10-12T06:50:50.795Z,11.80
2017-10-12T06:51:50.762Z,11.90
2017-10-12T06:52:50.730Z,11.70
2017-10-12T06:53:50.696Z,11.80
2017-10-12T06:54:50.694Z,8.50
2017-10-12T06:55:50.634Z,8.90
2017-10-12T06:56:50.598Z,7.50
2017-10-12T06:57:50.739Z,8.10
2017-10-12T06:58:50.643Z,7.90
2017-10-12T06:59:50.612Z,7.80
2017-10-12T07:00:50.741Z,9.80
2017-10-12T07:01:50.432Z,11.50
2017-10-12T07:02:50.397Z,9.70
2017-10-12T07:03:50.367Z,8.20
2017-10-12T07:04:50.335Z,6.50
2017-10-12T07:05:50.299Z,9.20
2017-10-12T07:06:50.267Z,7.70
2017-10-12T07:07:50.236Z,7.60
2017-10-12T07:08:50.204Z,7.40
2017-10-12T07:09:51.070Z,9.10
2017-10-12T07:10:50.136Z,6.50
2017-10-12T07:11:50.103Z,6.50
2017-10-12T07:12:50.072Z,6.70
2017-10-12T07:13:50.039Z,4.70
2017-10-12T07:14:50.008Z,4.90
2017-10-12T07:15:49.978Z,4.70
2017-10-12T07:16:49.944Z,5.60
2017-10-12T07:17:49.910Z,6.30
2017-10-12T07:18:49.880Z,5.50
2017-10-12T07:19:49.846Z,4.80
2017-10-12T07:20:49.816Z,4.40
2017-10-12T07:21:49.784Z,5.10
2017-10-12T07:22:49.753Z,4.60
2017-10-12T07:23:49.722Z,5.00
2017-10-12T07:24:49.697Z,5.90
2017-10-12T07:25:49.658Z,4.60
2017-10-12T07:26:49.627Z,5.40
2017-10-12T07:27:49.599Z,4.10
2017-10-12T07:28:49.566Z,5.30
2017-10-12T07:29:49.534Z,4.80
2017-10-12T07:30:49.503Z,6.40
2017-10-12T07:31:49.475Z,5.70
2017-10-12T07:32:49.444Z,5.30
2017-10-12T07:33:49.972Z,5.40
2017-10-12T07:34:49.381Z,5.00
2017-10-12T07:35:49.351Z,5.10
2017-10-12T07:36:49.321Z,5.30
2017-10-12T07:37:49.291Z,5.70
2017-10-12T07:38:49.259Z,4.90
2017-10-12T07:39:49.231Z,5.40
2017-10-12T07:40:49.200Z,5.50
2017-10-12T07:41:49.171Z,4.60
2017-10-12T07:42:49.140Z,5.10
2017-10-12T07:43:49.109Z,4.80
2017-10-12T07:44:49.080Z,4.50
2017-10-12T07:45:49.051Z,5.60
2017-10-12T07:46:49.022Z,5.00
2017-10-12T07:47:48.992Z,4.80
2017-10-12T07:48:48.963Z,5.10
2017-10-12T07:49:48.934Z,5.70
2017-10-12T07:50:48.911Z,6.00
2017-10-12T07:51:48.877Z,5.80
2017-10-12T07:52:48.848Z,5.80
2017-10-12T07:53:48.821Z,6.30
2017-10-12T07:54:48.793Z,7.00
2017-10-12T07:55:48.761Z,5.90
2017-10-12T07:56:48.731Z,5.70
2017-10-12T07:57:48.699Z,5.30
2017-10-12T07:58:48.671Z,6.00
2017-10-12T07:59:48.639Z,5.40
2017-10-12T08:00:48.613Z,6.70
2017-10-12T08:01:48.584Z,7.00
2017-10-12T08:02:48.551Z,6.10
2017-10-12T08:03:48.522Z,5.50
2017-10-12T08:04:48.492Z,6.00
2017-10-12T08:05:48.465Z,5.90
2017-10-12T08:06:48.432Z,5.10
2017-10-12T08:07:48.411Z,5.90
2017-10-12T08:08:48.373Z,5.00
2017-10-12T08:09:48.343Z,5.20
2017-10-12T08:10:48.312Z,6.80
2017-10-12T08:11:48.288Z,5.20
2017-10-12T08:12:48.256Z,6.00
2017-10-12T08:13:48.228Z,5.30
2017-10-12T08:14:48.200Z,5.50
2017-10-12T08:15:48.170Z,4.90
2017-10-12T08:16:48.143Z,5.10
2017-10-12T08:17:48.115Z,5.90
2017-10-12T08:18:48.087Z,6.00
2017-10-12T08:19:48.060Z,5.80
2017-10-12T08:20:48.035Z,4.80
2017-10-12T08:21:48.006Z,5.10
2017-10-12T08:22:47.980Z,5.20
2017-10-12T08:23:47.953Z,6.40
2017-10-12T08:24:47.929Z,5.50
2017-10-12T08:25:47.900Z,5.60
2017-10-12T08:26:47.874Z,4.70
2017-10-12T08:27:47.850Z,5.90
2017-10-12T08:28:47.823Z,5.00
2017-10-12T08:29:47.796Z,5.60
2017-10-12T08:30:47.769Z,4.80
2017-10-12T08:31:47.749Z,6.30
2017-10-12T08:32:47.718Z,4.90
2017-10-12T08:33:47.692Z,5.30
2017-10-12T08:34:47.664Z,5.40
2017-10-12T08:35:47.639Z,5.00
2017-10-12T08:36:47.615Z,4.90
2017-10-12T08:37:47.584Z,4.40
2017-10-12T08:38:47.563Z,5.30
2017-10-12T08:39:47.536Z,5.70
2017-10-12T08:40:47.676Z,6.30
2017-10-12T08:41:47.490Z,5.20
2017-10-12T08:42:47.460Z,4.60
2017-10-12T08:43:47.435Z,4.70
2017-10-12T08:44:47.413Z,5.60
2017-10-12T08:45:47.386Z,5.60
2017-10-12T08:46:47.359Z,5.80
2017-10-12T08:47:47.335Z,6.80
2017-10-12T08:48:47.307Z,5.50
2017-10-12T08:49:47.283Z,4.70
2017-10-12T08:50:47.257Z,5.80
2017-10-12T08:51:47.236Z,4.40
2017-10-12T08:52:47.208Z,5.10
2017-10-12T08:53:47.183Z,5.40
2017-10-12T08:54:47.160Z,5.30
2017-10-12T08:55:47.136Z,6.10
2017-10-12T08:56:47.112Z,6.20
2017-10-12T08:57:47.087Z,5.70
2017-10-12T08:58:47.065Z,5.10
2017-10-12T08:59:47.040Z,4.90
2017-10-12T09:00:47.018Z,5.50
2017-10-12T09:01:46.995Z,5.80
2017-10-12T09:02:46.986Z,5.20
2017-10-12T09:03:46.946Z,5.40
2017-10-12T09:04:46.923Z,5.50
2017-10-12T09:05:46.928Z,4.70
2017-10-12T09:06:46.874Z,5.10
2017-10-12T09:07:46.854Z,5.60
2017-10-12T09:08:46.834Z,5.70
2017-10-12T09:09:46.808Z,5.30
2017-10-12T09:10:46.786Z,6.50
2017-10-12T09:11:46.845Z,5.60
2017-10-12T09:12:46.741Z,8.30
2017-10-12T09:13:46.717Z,7.30
2017-10-12T09:14:46.694Z,7.80
2017-10-12T09:15:46.673Z,6.20
2017-10-12T09:16:46.647Z,7.00
2017-10-12T09:17:46.626Z,5.60
2017-10-12T09:18:46.601Z,7.00
2017-10-12T09:19:46.580Z,5.60
2017-10-12T09:20:46.554Z,6.80
2017-10-12T09:21:46.530Z,5.50
2017-10-12T09:22:46.505Z,5.30
2017-10-12T09:23:46.483Z,7.00
2017-10-12T09:24:46.459Z,5.40
2017-10-12T09:25:46.435Z,6.50
2017-10-12T09:26:46.411Z,6.30
2017-10-12T09:27:46.387Z,4.90
2017-10-12T09:28:46.365Z,6.00
2017-10-12T09:29:46.339Z,4.60
2017-10-12T09:30:46.317Z,5.00
2017-10-12T09:31:46.295Z,4.00
2017-10-12T09:32:46.272Z,5.20
2017-10-12T09:33:46.248Z,5.60
2017-10-12T09:34:46.225Z,6.50
2017-10-12T09:35:46.201Z,6.50
2017-10-12T09:36:46.178Z,4.60
2017-10-12T09:37:46.156Z,6.20
2017-10-12T09:38:46.131Z,5.20
2017-10-12T09:39:46.460Z,4.70
2017-10-12T09:40:46.102Z,4.30
2017-10-12T09:41:46.060Z,3.80
2017-10-12T09:42:46.039Z,4.20
2017-10-12T09:43:46.015Z,4.50
2017-10-12T09:44:45.990Z,4.20
2017-10-12T09:45:45.965Z,4.90
2017-10-12T09:46:45.943Z,6.70
2017-10-12T09:47:45.921Z,4.60
2017-10-12T09:48:45.898Z,3.70
2017-10-12T09:49:45.873Z,4.10
2017-10-12T09:50:45.850Z,6.50
2017-10-12T09:51:45.843Z,5.80
2017-10-12T09:52:45.806Z,6.40
2017-10-12T09:53:45.781Z,4.40
2017-10-12T09:54:45.760Z,6.80
2017-10-12T09:55:45.742Z,9.80
2017-10-12T09:56:45.714Z,6.40
2017-10-12T09:57:45.692Z,5.40
2017-10-12T09:58:45.671Z,4.40
2017-10-12T09:59:45.650Z,3.50
2017-10-12T10:00:45.630Z,3.70
2017-10-12T10:01:45.607Z,3.90
2017-10-12T10:02:45.585Z,4.50
2017-10-12T10:03:45.564Z,5.80
2017-10-12T10:04:45.542Z,3.50
2017-10-12T10:05:45.520Z,3.30
2017-10-12T10:06:45.502Z,4.20
2017-10-12T10:07:45.478Z,4.00
2017-10-12T10:08:45.454Z,3.80
2017-10-12T10:09:45.434Z,3.90
2017-10-12T10:10:45.410Z,3.90
2017-10-12T10:11:45.390Z,4.40
2017-10-12T10:12:45.368Z,3.90
2017-10-12T10:13:45.346Z,5.20
2017-10-12T10:14:45.590Z,4.60
2017-10-12T10:15:45.299Z,4.20
2017-10-12T10:16:45.278Z,3.60
2017-10-12T10:17:45.593Z,3.80
2017-10-12T10:18:45.231Z,3.00
2017-10-12T10:19:45.212Z,3.80
2017-10-12T10:20:45.188Z,4.10
2017-10-12T10:21:45.163Z,3.50
2017-10-12T10:22:45.141Z,4.50
2017-10-12T10:23:45.728Z,4.70
2017-10-12T10:24:45.097Z,4.00
2017-10-12T10:25:45.073Z,4.00
2017-10-12T10:26:45.052Z,3.20
2017-10-12T10:27:45.027Z,4.10
2017-10-12T10:28:45.004Z,4.10
2017-10-12T10:29:44.981Z,4.20
2017-10-12T10:30:44.957Z,3.80
2017-10-12T10:31:44.934Z,4.60
2017-10-12T10:32:44.910Z,4.50
2017-10-12T10:33:44.888Z,4.10
2017-10-12T10:34:44.866Z,4.50
2017-10-12T10:35:44.959Z,4.20
2017-10-12T10:36:44.819Z,4.60
2017-10-12T10:37:44.796Z,3.80
2017-10-12T10:38:44.960Z,3.70
2017-10-12T10:39:44.749Z,3.80
2017-10-12T10:40:44.723Z,4.40
2017-10-12T10:41:44.965Z,4.10
2017-10-12T10:42:44.678Z,4.50
2017-10-12T10:43:44.656Z,3.70
2017-10-12T10:44:45.177Z,3.80
2017-10-12T10:45:44.822Z,4.90
2017-10-12T10:46:45.169Z,4.80
2017-10-12T10:47:44.558Z,3.90
2017-10-12T10:48:44.537Z,3.70
2017-10-12T10:49:44.509Z,3.60
2017-10-12T10:50:44.485Z,4.50
2017-10-12T10:51:44.462Z,5.10
2017-10-12T10:52:44.437Z,5.90
2017-10-12T10:53:44.410Z,6.00
2017-10-12T10:54:44.387Z,13.50
2017-10-12T10:55:44.412Z,6.60
2017-10-12T10:56:44.337Z,7.30
2017-10-12T10:57:44.313Z,10.10
2017-10-12T10:58:44.290Z,8.40
2017-10-12T10:59:44.268Z,8.50
2017-10-12T11:00:44.243Z,4.40
2017-10-12T11:01:44.219Z,3.70
2017-10-12T11:02:44.196Z,8.10
2017-10-12T11:03:44.174Z,5.40
2017-10-12T11:04:44.150Z,6.60
2017-10-12T11:05:44.125Z,3.40
2017-10-12T11:06:44.104Z,5.80
2017-10-12T11:07:44.075Z,4.80
2017-10-12T11:08:44.057Z,3.90
2017-10-12T11:09:44.034Z,5.70
2017-10-12T11:10:44.013Z,4.70
2017-10-12T11:11:43.990Z,4.30
2017-10-12T11:12:43.969Z,4.40
2017-10-12T11:13:43.945Z,4.60
2017-10-12T11:14:43.923Z,4.60
2017-10-12T11:15:43.900Z,8.90
2017-10-12T11:16:43.880Z,5.50
2017-10-12T11:17:43.858Z,5.00
2017-10-12T11:18:43.836Z,2.80
2017-10-12T11:19:43.815Z,3.20
2017-10-12T11:20:43.797Z,4.30
2017-10-12T11:21:43.769Z,3.50
2017-10-12T11:22:43.751Z,4.50
2017-10-12T11:23:43.725Z,4.80
2017-10-12T11:24:43.702Z,5.00
2017-10-12T11:25:43.688Z,7.80
2017-10-12T11:26:43.654Z,5.10
2017-10-12T11:27:43.634Z,6.10
2017-10-12T11:28:43.608Z,4.50
2017-10-12T11:29:43.586Z,6.30
2017-10-12T11:30:43.563Z,6.40
2017-10-12T11:31:43.540Z,15.10
2017-10-12T11:32:43.516Z,13.40
2017-10-12T11:33:43.491Z,11.00
2017-10-12T11:34:43.473Z,12.00
2017-10-12T11:35:43.445Z,5.50
2017-10-12T11:36:43.420Z,7.10
2017-10-12T11:37:43.391Z,8.60
2017-10-12T11:38:43.366Z,6.40
2017-10-12T11:39:43.341Z,6.80
2017-10-12T11:40:43.314Z,8.20
2017-10-12T11:41:43.288Z,6.50
2017-10-12T11:42:43.260Z,8.30
2017-10-12T11:43:43.234Z,5.90
2017-10-12T11:44:43.207Z,8.30
2017-10-12T11:45:43.342Z,6.50
2017-10-12T11:46:43.152Z,3.20
2017-10-12T11:47:43.125Z,4.20
2017-10-12T11:48:43.100Z,4.00
2017-10-12T11:49:43.345Z,4.20
2017-10-12T11:50:43.345Z,3.50
2017-10-12T11:51:43.291Z,5.50
2017-10-12T11:52:42.993Z,3.40
2017-10-12T11:53:42.964Z,6.20
2017-10-12T11:54:42.939Z,4.20
2017-10-12T11:55:42.918Z,10.20
2017-10-12T11:56:42.885Z,5.90
2017-10-12T11:57:42.859Z,7.90
2017-10-12T11:58:43.552Z,12.10
2017-10-12T11:59:42.805Z,8.70
2017-10-12T12:00:42.778Z,12.60
2017-10-12T12:01:42.752Z,6.60
2017-10-12T12:02:42.727Z,3.80
2017-10-12T12:03:42.701Z,4.00
2017-10-12T12:04:42.680Z,5.70
2017-10-12T12:05:42.650Z,7.10
2017-10-12T12:06:42.627Z,5.80
2017-10-12T12:07:42.603Z,7.60
2017-10-12T12:08:42.701Z,6.30
2017-10-12T12:09:42.549Z,8.30
2017-10-12T12:10:42.523Z,6.40
2017-10-12T12:11:42.499Z,16.10
2017-10-12T12:12:42.474Z,9.30
2017-10-12T12:13:43.115Z,7.40
2017-10-12T12:14:42.424Z,15.50
2017-10-12T12:15:42.398Z,19.30
2017-10-12T12:16:42.375Z,5.50
2017-10-12T12:17:42.347Z,6.60
2017-10-12T12:18:42.324Z,5.80
2017-10-12T12:19:42.298Z,5.90
2017-10-12T12:20:42.273Z,6.40
2017-10-12T12:21:42.244Z,6.00
2017-10-12T12:22:42.504Z,5.50
2017-10-12T12:23:42.193Z,6.70
2017-10-12T12:24:42.168Z,5.30
2017-10-12T12:25:42.142Z,4.30
2017-10-12T12:26:42.115Z,7.50
2017-10-12T12:27:42.089Z,3.50
2017-10-12T12:28:42.061Z,4.50
2017-10-12T12:29:42.036Z,7.90
2017-10-12T12:30:42.009Z,5.00
2017-10-12T12:31:41.984Z,3.90
2017-10-12T12:32:41.958Z,4.50
2017-10-12T12:33:41.930Z,7.00
2017-10-12T12:34:41.904Z,7.40
2017-10-12T12:35:41.881Z,4.60
2017-10-12T12:36:41.851Z,4.50
2017-10-12T12:37:41.824Z,5.90
2017-10-12T12:38:41.795Z,4.50
2017-10-12T12:39:41.768Z,5.80
2017-10-12T12:40:41.740Z,4.10
2017-10-12T12:41:41.887Z,3.80
2017-10-12T12:42:41.685Z,4.70
2017-10-12T12:43:41.660Z,4.10
2017-10-12T12:44:41.631Z,3.60
2017-10-12T12:45:41.608Z,5.30
2017-10-12T12:46:41.577Z,5.20
2017-10-12T12:47:41.549Z,5.10
2017-10-12T12:48:41.524Z,7.60
2017-10-12T12:49:41.497Z,7.20
2017-10-12T12:50:41.473Z,4.20
2017-10-12T12:51:41.447Z,9.60
2017-10-12T12:52:41.444Z,6.60
2017-10-12T12:53:41.397Z,5.80
2017-10-12T12:54:41.373Z,6.10
2017-10-12T12:55:41.348Z,5.10
2017-10-12T12:56:41.327Z,6.30
2017-10-12T12:57:41.303Z,4.40
2017-10-12T12:58:41.278Z,5.20
2017-10-12T12:59:41.259Z,6.00
2017-10-12T13:00:41.230Z,4.40
2017-10-12T13:01:41.205Z,5.70
2017-10-12T13:02:41.183Z,6.60
2017-10-12T13:03:41.160Z,5.40
2017-10-12T13:04:41.137Z,4.20
2017-10-12T13:05:41.112Z,4.60
2017-10-12T13:06:41.169Z,7.80
2017-10-12T13:07:41.068Z,4.90
2017-10-12T13:08:41.044Z,5.10
2017-10-12T13:09:41.022Z,4.80
2017-10-12T13:10:41.002Z,3.40
2017-10-12T13:11:40.973Z,5.60
2017-10-12T13:12:40.953Z,4.40
2017-10-12T13:13:40.927Z,5.00
2017-10-12T13:14:40.903Z,4.20
2017-10-12T13:15:40.878Z,3.60
2017-10-12T13:16:40.858Z,3.70